Time;durP1;ratioP1;P1;durP2;ratioP2;P2;SDS_P1;SDS_P2;PMS_P1;PMS_P2;Temp;Humidity;BMP_temperature;BMP_pressure;BME280_temperature;BME280_humidity;BME280_pressure;Samples;Min_cycle;Max_cycle;Signal;HPM_P1;HPM_P2
2023/09/29 00:01:35;;;;;;;11.63;9.60;;;;;;;;;;4959872;28;20038;-71
2023/09/29 00:04:03;;;;;;;10.32;9.40;;;;;;;;;;4961306;28;20081;-71
2023/09/29 00:06:29;;;;;;;10.05;9.35;;;;;;;;;;4966231;28;20223;-71
2023/09/29 00:08:54;;;;;;;10.10;9.30;;;;;;;;;;4964663;28;20433;-71
2023/09/29 00:11:20;;;;;;;10.52;9.63;;;;;;;;;;4963592;28;20058;-71
2023/09/29 00:13:45;;;;;;;10.43;9.52;;;;;;;;;;4977991;28;20042;-72
2023/09/29 00:16:11;;;;;;;9.65;9.05;;;;;;;;;;4964807;28;20038;-71
2023/09/29 00:18:37;;;;;;;10.10;9.13;;;;;;;;;;4965999;28;20279;-71
2023/09/29 00:21:02;;;;;;;9.88;9.10;;;;;;;;;;4964424;28;20066;-71
2023/09/29 00:23:28;;;;;;;10.43;9.57;;;;;;;;;;4963935;28;20410;-71
2023/09/29 00:25:54;;;;;;;9.77;9.07;;;;;;;;;;4965578;28;20053;-71
2023/09/29 00:28:19;;;;;;;9.70;8.98;;;;;;;;;;4962141;28;20038;-71
2023/09/29 00:30:45;;;;;;;9.13;8.52;;;;;;;;;;4964181;28;20035;-71
2023/09/29 00:33:10;;;;;;;9.50;8.80;;;;;;;;;;4965456;28;20302;-71
2023/09/29 00:35:37;;;;;;;10.43;9.32;;;;;;;;;;4966286;28;20041;-70
2023/09/29 00:38:03;;;;;;;10.10;9.23;;;;;;;;;;4967002;28;20481;-72
2023/09/29 00:40:28;;;;;;;9.45;8.75;;;;;;;;;;4962180;28;20490;-71
2023/09/29 00:42:54;;;;;;;12.60;8.85;;;;;;;;;;4964030;28;20062;-71
2023/09/29 00:45:24;;;;;;;9.93;8.93;;;;;;;;;;4963742;28;20114;-71
2023/09/29 00:47:57;;;;;;;10.40;9.45;;;;;;;;;;4960688;28;20031;-71
2023/09/29 00:50:28;;;;;;;9.90;9.20;;;;;;;;;;4961361;28;20062;-71
2023/09/29 00:52:58;;;;;;;10.23;9.20;;;;;;;;;;4977137;28;20379;-71
2023/09/29 00:55:26;;;;;;;10.02;9.25;;;;;;;;;;4944590;28;20153;-71
2023/09/29 00:57:52;;;;;;;9.57;8.88;;;;;;;;;;4979312;28;20031;-71
2023/09/29 01:02:48;;;;;;;9.95;9.15;;;;;;;;;;4963060;28;20320;-71
2023/09/29 01:05:14;;;;;;;10.52;9.35;;;;;;;;;;4981288;28;20046;-71
2023/09/29 01:07:42;;;;;;;13.15;9.55;;;;;;;;;;4968229;28;20068;-71
2023/09/29 01:10:11;;;;;;;9.63;8.82;;;;;;;;;;4976530;28;20057;-70
2023/09/29 01:12:37;;;;;;;10.02;9.23;;;;;;;;;;4966852;28;20039;-71
2023/09/29 01:15:05;;;;;;;10.88;9.90;;;;;;;;;;4969442;28;20046;-71
2023/09/29 01:17:31;;;;;;;10.60;9.60;;;;;;;;;;4982282;28;20041;-70
2023/09/29 01:19:58;;;;;;;10.30;9.40;;;;;;;;;;4968771;28;20042;-71
2023/09/29 01:22:24;;;;;;;10.27;9.38;;;;;;;;;;4980443;28;20043;-71
2023/09/29 01:24:49;;;;;;;10.02;9.25;;;;;;;;;;4966080;28;20037;-71
2023/09/29 01:27:15;;;;;;;10.95;9.95;;;;;;;;;;4976691;28;20454;-71
2023/09/29 01:29:44;;;;;;;9.77;8.77;;;;;;;;;;4964727;28;20038;-71
2023/09/29 01:32:14;;;;;;;9.63;8.70;;;;;;;;;;4966439;28;20086;-71
2023/09/29 01:34:40;;;;;;;9.75;8.95;;;;;;;;;;4978672;28;20039;-71
2023/09/29 01:37:07;;;;;;;9.75;9.00;;;;;;;;;;4980709;28;20049;-71
2023/09/29 01:39:32;;;;;;;9.77;8.98;;;;;;;;;;4966380;28;20114;-71
2023/09/29 01:41:58;;;;;;;10.02;9.02;;;;;;;;;;4983573;28;20463;-71
2023/09/29 01:44:24;;;;;;;9.60;8.90;;;;;;;;;;4971688;28;20037;-71
2023/09/29 01:46:49;;;;;;;9.55;8.57;;;;;;;;;;4980395;28;20383;-71
2023/09/29 01:49:15;;;;;;;11.32;8.48;;;;;;;;;;4969996;28;20429;-71
2023/09/29 01:51:44;;;;;;;10.30;9.40;;;;;;;;;;4978465;28;20118;-71
2023/09/29 01:54:11;;;;;;;9.63;8.93;;;;;;;;;;4963081;28;20046;-71
2023/09/29 01:56:36;;;;;;;9.90;9.10;;;;;;;;;;4967913;28;20298;-72
2023/09/29 01:59:02;;;;;;;9.68;8.88;;;;;;;;;;4968602;28;20066;-71
2023/09/29 02:01:29;;;;;;;10.30;9.30;;;;;;;;;;4980325;28;20242;-71
2023/09/29 02:03:55;;;;;;;9.95;8.93;;;;;;;;;;4966352;28;20042;-71
2023/09/29 02:06:20;;;;;;;10.02;9.20;;;;;;;;;;4965610;28;20351;-71
2023/09/29 02:08:46;;;;;;;12.02;8.85;;;;;;;;;;4970895;28;20037;-71
2023/09/29 02:11:12;;;;;;;10.85;9.85;;;;;;;;;;4973754;28;20121;-71
2023/09/29 02:13:38;;;;;;;10.13;9.32;;;;;;;;;;4981705;28;20035;-71
2023/09/29 02:16:12;;;;;;;10.15;9.18;;;;;;;;;;4977916;28;20664;-71
2023/09/29 02:18:39;;;;;;;10.55;9.65;;;;;;;;;;4980769;28;20035;-71
2023/09/29 02:21:08;;;;;;;10.90;10.00;;;;;;;;;;4969846;28;20048;-71
2023/09/29 02:23:36;;;;;;;10.57;9.60;;;;;;;;;;4980169;28;20065;-71
2023/09/29 02:26:02;;;;;;;11.27;9.38;;;;;;;;;;4952058;28;20050;-71
2023/09/29 02:28:31;;;;;;;10.57;9.68;;;;;;;;;;4959786;28;20060;-71
2023/09/29 02:30:57;;;;;;;10.48;9.48;;;;;;;;;;4965562;28;20050;-71
2023/09/29 02:33:24;;;;;;;10.52;9.70;;;;;;;;;;4964163;28;20098;-71
2023/09/29 02:35:50;;;;;;;10.90;9.93;;;;;;;;;;4963233;28;20078;-71
2023/09/29 02:38:16;;;;;;;11.48;10.30;;;;;;;;;;4981196;28;20105;-71
2023/09/29 02:40:42;;;;;;;10.20;9.30;;;;;;;;;;4965564;28;20429;-71
2023/09/29 02:43:09;;;;;;;10.30;9.45;;;;;;;;;;4964654;28;20130;-71
2023/09/29 02:45:40;;;;;;;9.88;9.15;;;;;;;;;;4963608;28;20042;-71
2023/09/29 02:48:06;;;;;;;10.57;9.70;;;;;;;;;;4976912;28;20043;-71
2023/09/29 02:50:35;;;;;;;10.32;9.52;;;;;;;;;;4959157;28;20035;-71
2023/09/29 02:53:05;;;;;;;9.73;9.02;;;;;;;;;;4964749;28;20034;-71
2023/09/29 02:55:31;;;;;;;10.15;9.35;;;;;;;;;;4964395;28;20040;-71
2023/09/29 02:57:56;;;;;;;10.80;9.18;;;;;;;;;;4959838;28;20114;-71
2023/09/29 03:00:26;;;;;;;10.00;9.10;;;;;;;;;;4978398;28;20482;-71
2023/09/29 03:02:52;;;;;;;10.48;9.52;;;;;;;;;;4976529;28;20073;-71
2023/09/29 03:05:20;;;;;;;11.20;10.23;;;;;;;;;;4973103;28;20438;-72
2023/09/29 03:07:47;;;;;;;13.40;9.57;;;;;;;;;;4962750;28;20105;-70
2023/09/29 03:10:14;;;;;;;13.35;9.63;;;;;;;;;;4974438;28;20155;-70
2023/09/29 03:12:41;;;;;;;10.38;9.40;;;;;;;;;;4962983;28;20217;-71
2023/09/29 03:15:11;;;;;;;10.90;9.90;;;;;;;;;;4961215;28;20043;-71
2023/09/29 03:17:37;;;;;;;10.20;9.23;;;;;;;;;;4941411;28;20039;-71
2023/09/29 03:20:09;;;;;;;10.30;9.40;;;;;;;;;;4961423;28;20082;-71
2023/09/29 03:22:37;;;;;;;10.38;9.52;;;;;;;;;;4958079;28;20613;-70
2023/09/29 03:25:04;;;;;;;10.43;9.63;;;;;;;;;;4959590;28;20550;-71
2023/09/29 03:27:29;;;;;;;10.15;9.43;;;;;;;;;;4959989;28;20035;-71
2023/09/29 03:29:55;;;;;;;10.27;9.40;;;;;;;;;;4960800;28;20345;-71
2023/09/29 03:32:20;;;;;;;10.88;9.90;;;;;;;;;;4962061;28;20037;-71
2023/09/29 03:34:48;;;;;;;10.57;9.60;;;;;;;;;;4962972;28;20085;-71
2023/09/29 03:37:14;;;;;;;11.32;10.07;;;;;;;;;;4972707;28;20038;-71
2023/09/29 03:39:39;;;;;;;11.60;10.60;;;;;;;;;;4962873;28;20037;-71
2023/09/29 03:42:05;;;;;;;11.63;10.73;;;;;;;;;;4962193;28;20043;-71
2023/09/29 03:44:32;;;;;;;11.43;10.52;;;;;;;;;;4961933;28;20070;-71
2023/09/29 03:46:58;;;;;;;11.35;10.50;;;;;;;;;;4962430;28;20039;-71
2023/09/29 03:49:23;;;;;;;11.00;10.10;;;;;;;;;;4961200;28;20049;-71
2023/09/29 03:51:51;;;;;;;10.98;10.02;;;;;;;;;;4956882;28;20046;-71
2023/09/29 03:54:18;;;;;;;11.02;9.93;;;;;;;;;;4956558;28;20039;-71
2023/09/29 03:56:43;;;;;;;10.32;9.40;;;;;;;;;;4959525;28;20140;-71
2023/09/29 03:59:09;;;;;;;10.48;9.05;;;;;;;;;;4955379;28;20075;-71
2023/09/29 04:01:34;;;;;;;10.82;9.85;;;;;;;;;;4956351;28;20136;-71
2023/09/29 04:04:01;;;;;;;11.73;10.18;;;;;;;;;;4962615;28;20091;-71
2023/09/29 04:06:26;;;;;;;10.80;9.90;;;;;;;;;;4955033;28;20035;-71
2023/09/29 04:08:54;;;;;;;12.43;10.23;;;;;;;;;;4960821;28;20386;-71
2023/09/29 04:11:19;;;;;;;12.27;9.90;;;;;;;;;;4963718;28;20034;-71
2023/09/29 04:13:45;;;;;;;10.65;9.85;;;;;;;;;;4964953;28;20050;-71
2023/09/29 04:16:12;;;;;;;10.75;9.85;;;;;;;;;;4963524;28;20038;-71
2023/09/29 04:18:38;;;;;;;10.77;9.93;;;;;;;;;;4963841;28;20499;-71
2023/09/29 04:21:10;;;;;;;14.00;10.05;;;;;;;;;;4960321;28;20065;-71
2023/09/29 04:23:35;;;;;;;12.02;9.82;;;;;;;;;;4964594;28;20046;-71
2023/09/29 04:26:02;;;;;;;10.73;9.82;;;;;;;;;;4954498;28;20457;-71
2023/09/29 04:28:27;;;;;;;10.90;9.95;;;;;;;;;;4963678;28;20038;-71
2023/09/29 04:30:53;;;;;;;10.63;9.80;;;;;;;;;;4965504;28;20049;-71
2023/09/29 04:33:18;;;;;;;10.73;9.82;;;;;;;;;;4964712;28;20039;-71
2023/09/29 04:35:44;;;;;;;10.88;9.95;;;;;;;;;;4973411;28;20069;-72
2023/09/29 04:38:10;;;;;;;10.98;9.90;;;;;;;;;;4962956;28;20054;-71
2023/09/29 04:40:35;;;;;;;11.15;10.07;;;;;;;;;;4971803;28;20031;-71
2023/09/29 04:43:03;;;;;;;12.48;9.93;;;;;;;;;;4967932;28;20053;-71
2023/09/29 04:45:28;;;;;;;11.50;10.60;;;;;;;;;;4970161;28;20532;-71
2023/09/29 04:47:54;;;;;;;12.25;10.95;;;;;;;;;;4970509;28;20046;-71
2023/09/29 04:50:20;;;;;;;11.43;10.30;;;;;;;;;;4969663;28;20028;-71
2023/09/29 04:52:45;;;;;;;11.27;10.25;;;;;;;;;;4964837;28;20050;-72
2023/09/29 04:55:11;;;;;;;11.35;10.23;;;;;;;;;;4967529;28;20071;-71
2023/09/29 04:57:37;;;;;;;11.40;10.32;;;;;;;;;;4973590;28;20045;-71
2023/09/29 05:00:03;;;;;;;11.02;10.18;;;;;;;;;;4968746;28;20334;-71
2023/09/29 05:02:30;;;;;;;10.73;9.93;;;;;;;;;;4967084;28;20061;-71
2023/09/29 05:04:56;;;;;;;10.73;9.82;;;;;;;;;;4968882;28;20494;-71
2023/09/29 05:07:22;;;;;;;11.40;10.30;;;;;;;;;;4969827;28;20041;-71
2023/09/29 05:09:48;;;;;;;10.63;9.85;;;;;;;;;;4966019;28;20208;-72
2023/09/29 05:12:13;;;;;;;10.77;9.85;;;;;;;;;;4968871;28;20045;-71
2023/09/29 05:14:40;;;;;;;9.98;9.18;;;;;;;;;;4968657;28;20038;-71
2023/09/29 05:17:05;;;;;;;10.57;9.60;;;;;;;;;;4970403;28;20031;-72
2023/09/29 05:19:31;;;;;;;10.98;10.07;;;;;;;;;;4949267;28;20485;-71
2023/09/29 05:21:57;;;;;;;10.73;9.73;;;;;;;;;;4977429;28;20125;-71
2023/09/29 05:24:23;;;;;;;11.07;9.98;;;;;;;;;;4971354;28;20060;-70
2023/09/29 05:26:48;;;;;;;11.43;10.07;;;;;;;;;;4972300;28;20500;-70
2023/09/29 05:29:14;;;;;;;11.70;10.60;;;;;;;;;;4972580;28;20033;-70
2023/09/29 05:31:39;;;;;;;11.18;10.02;;;;;;;;;;4972288;28;20034;-71
2023/09/29 05:34:05;;;;;;;12.55;9.60;;;;;;;;;;4973067;28;20046;-71
2023/09/29 05:36:30;;;;;;;10.68;9.85;;;;;;;;;;4970165;28;20042;-71
2023/09/29 05:38:56;;;;;;;11.05;9.93;;;;;;;;;;4972721;28;20042;-71
2023/09/29 05:41:22;;;;;;;10.63;9.75;;;;;;;;;;4967300;28;20157;-71
2023/09/29 05:43:48;;;;;;;11.23;10.23;;;;;;;;;;4970572;28;20498;-70
2023/09/29 05:46:13;;;;;;;11.25;10.27;;;;;;;;;;4976326;28;20035;-71
2023/09/29 05:48:39;;;;;;;11.07;10.00;;;;;;;;;;4969451;28;20035;-71
2023/09/29 05:51:04;;;;;;;10.85;9.70;;;;;;;;;;4970993;28;20490;-71
2023/09/29 05:53:30;;;;;;;11.68;10.52;;;;;;;;;;4969114;28;20045;-70
2023/09/29 05:55:55;;;;;;;11.65;10.65;;;;;;;;;;4966903;28;20318;-71
2023/09/29 05:58:22;;;;;;;11.20;10.13;;;;;;;;;;4966947;28;20038;-71
2023/09/29 06:00:48;;;;;;;11.45;10.25;;;;;;;;;;4968643;28;20398;-71
2023/09/29 06:03:15;;;;;;;12.27;9.90;;;;;;;;;;4965207;28;20047;-71
2023/09/29 06:05:41;;;;;;;11.07;10.15;;;;;;;;;;4967471;28;20556;-70
2023/09/29 06:08:07;;;;;;;11.15;9.95;;;;;;;;;;4968569;28;20058;-71
2023/09/29 06:10:32;;;;;;;11.35;10.23;;;;;;;;;;4970447;28;20037;-71
2023/09/29 06:12:59;;;;;;;10.43;9.40;;;;;;;;;;4969169;28;20105;-71
2023/09/29 06:15:24;;;;;;;12.32;11.10;;;;;;;;;;4965157;28;20387;-71
2023/09/29 06:17:50;;;;;;;12.40;11.25;;;;;;;;;;4963251;28;20045;-70
2023/09/29 06:20:16;;;;;;;13.35;10.85;;;;;;;;;;4966347;28;20033;-71
2023/09/29 06:22:42;;;;;;;11.65;10.65;;;;;;;;;;4966230;28;20031;-71
2023/09/29 06:25:08;;;;;;;12.32;11.20;;;;;;;;;;4970269;28;20046;-71
2023/09/29 06:27:33;;;;;;;12.32;10.98;;;;;;;;;;4966459;28;20042;-71
2023/09/29 06:29:59;;;;;;;11.10;10.13;;;;;;;;;;4966933;28;20535;-71
2023/09/29 06:32:25;;;;;;;11.55;10.55;;;;;;;;;;4964621;28;20090;-71
2023/09/29 06:34:51;;;;;;;11.07;10.15;;;;;;;;;;4970139;28;20034;-71
2023/09/29 06:37:16;;;;;;;10.68;9.68;;;;;;;;;;4967622;28;20054;-71
2023/09/29 06:39:42;;;;;;;10.00;9.13;;;;;;;;;;4965897;28;20058;-71
2023/09/29 06:42:07;;;;;;;11.93;10.20;;;;;;;;;;4965624;28;20576;-71
2023/09/29 06:44:33;;;;;;;13.57;10.40;;;;;;;;;;4964494;28;20034;-71
2023/09/29 06:46:59;;;;;;;13.20;10.70;;;;;;;;;;4965628;28;20121;-71
2023/09/29 06:49:25;;;;;;;13.20;10.48;;;;;;;;;;4965916;28;20408;-71
2023/09/29 06:51:51;;;;;;;11.60;10.40;;;;;;;;;;4962699;28;20383;-71
2023/09/29 06:54:16;;;;;;;11.68;10.68;;;;;;;;;;4961478;28;20039;-71
2023/09/29 06:56:42;;;;;;;14.38;9.98;;;;;;;;;;4967501;28;20034;-71
2023/09/29 06:59:08;;;;;;;11.63;10.52;;;;;;;;;;4964341;28;20055;-71
2023/09/29 07:01:34;;;;;;;11.23;10.00;;;;;;;;;;4960131;28;20098;-71
2023/09/29 07:03:59;;;;;;;10.65;9.68;;;;;;;;;;4964715;28;20142;-71
2023/09/29 07:06:25;;;;;;;11.23;10.15;;;;;;;;;;4966326;28;20042;-70
2023/09/29 07:08:51;;;;;;;10.77;9.75;;;;;;;;;;4963271;28;20085;-71
2023/09/29 07:11:17;;;;;;;11.02;10.00;;;;;;;;;;4965716;28;20038;-71
2023/09/29 07:13:42;;;;;;;10.68;9.68;;;;;;;;;;4965011;28;20295;-71
2023/09/29 07:16:08;;;;;;;10.45;9.20;;;;;;;;;;4964516;28;20053;-71
2023/09/29 07:18:34;;;;;;;10.80;9.70;;;;;;;;;;4966478;28;20035;-71
2023/09/29 07:20:59;;;;;;;10.68;9.63;;;;;;;;;;4968415;28;20039;-71
2023/09/29 07:23:25;;;;;;;10.32;9.40;;;;;;;;;;4969401;28;20038;-71
2023/09/29 07:25:52;;;;;;;14.02;10.25;;;;;;;;;;4966866;28;20050;-70
2023/09/29 07:28:19;;;;;;;10.73;9.73;;;;;;;;;;4969673;28;20027;-71
2023/09/29 07:30:45;;;;;;;14.05;9.82;;;;;;;;;;4969265;28;20061;-71
2023/09/29 07:33:11;;;;;;;11.00;9.77;;;;;;;;;;4969949;28;20462;-71
2023/09/29 07:35:37;;;;;;;11.23;9.75;;;;;;;;;;4963354;28;20039;-71
2023/09/29 07:38:03;;;;;;;10.65;9.65;;;;;;;;;;4962911;28;20383;-71
2023/09/29 07:40:29;;;;;;;15.23;9.88;;;;;;;;;;4961165;28;20034;-71
2023/09/29 07:42:54;;;;;;;12.65;10.07;;;;;;;;;;4965350;28;20050;-71
2023/09/29 07:45:20;;;;;;;10.95;9.63;;;;;;;;;;4964533;28;20039;-71
2023/09/29 07:47:46;;;;;;;10.38;9.35;;;;;;;;;;4960296;28;20541;-71
2023/09/29 07:50:12;;;;;;;13.50;9.77;;;;;;;;;;4965786;28;20031;-71
2023/09/29 07:52:39;;;;;;;10.57;9.68;;;;;;;;;;4964821;28;20046;-72
2023/09/29 07:55:09;;;;;;;10.25;9.02;;;;;;;;;;4979543;28;20031;-71
2023/09/29 07:57:35;;;;;;;10.43;9.43;;;;;;;;;;4962343;28;20034;-71
2023/09/29 08:00:01;;;;;;;11.23;10.10;;;;;;;;;;4962567;28;20038;-71
2023/09/29 08:02:39;;;;;;;10.38;9.27;;;;;;;;;;4963355;28;20031;-72
2023/09/29 08:05:07;;;;;;;10.30;9.10;;;;;;;;;;4964128;28;20117;-71
2023/09/29 08:07:34;;;;;;;12.00;9.80;;;;;;;;;;4964044;28;20108;-72
2023/09/29 08:09:59;;;;;;;11.98;10.00;;;;;;;;;;4966523;28;20475;-71
2023/09/29 08:12:25;;;;;;;10.40;9.48;;;;;;;;;;4960946;28;20099;-72
2023/09/29 08:14:51;;;;;;;11.23;10.02;;;;;;;;;;4963655;28;20170;-72
2023/09/29 08:17:18;;;;;;;10.07;9.10;;;;;;;;;;4964154;28;20031;-72
2023/09/29 08:19:44;;;;;;;10.57;9.52;;;;;;;;;;4963166;28;20795;-72
2023/09/29 08:22:10;;;;;;;10.70;9.60;;;;;;;;;;4964595;28;20049;-72
2023/09/29 08:24:35;;;;;;;16.45;9.60;;;;;;;;;;4962978;28;20522;-73
2023/09/29 08:27:02;;;;;;;13.15;9.52;;;;;;;;;;4962803;28;20047;-72
2023/09/29 08:29:28;;;;;;;12.63;9.52;;;;;;;;;;4964578;28;20039;-73
2023/09/29 08:31:56;;;;;;;10.43;9.50;;;;;;;;;;4964645;28;20053;-73
2023/09/29 08:34:21;;;;;;;9.65;8.75;;;;;;;;;;4964251;28;20498;-73
2023/09/29 08:36:47;;;;;;;11.40;9.35;;;;;;;;;;4977838;28;20042;-72
2023/09/29 08:39:13;;;;;;;10.45;9.45;;;;;;;;;;4964091;28;20498;-73
2023/09/29 08:41:47;;;;;;;9.57;8.70;;;;;;;;;;4962957;28;20039;-71
2023/09/29 08:44:18;;;;;;;9.85;9.05;;;;;;;;;;4961746;28;20119;-71
2023/09/29 08:46:47;;;;;;;9.68;8.75;;;;;;;;;;4967478;28;20146;-70
2023/09/29 08:49:16;;;;;;;9.40;8.48;;;;;;;;;;4960968;28;20042;-71
2023/09/29 08:51:46;;;;;;;10.82;8.27;;;;;;;;;;4963921;28;20035;-71
2023/09/29 08:54:13;;;;;;;13.80;8.43;;;;;;;;;;4964318;28;20165;-70
2023/09/29 08:56:39;;;;;;;10.25;9.25;;;;;;;;;;4965055;28;20394;-71
2023/09/29 08:59:05;;;;;;;9.00;8.20;;;;;;;;;;4963469;28;20042;-71
2023/09/29 09:01:31;;;;;;;12.23;8.60;;;;;;;;;;4963524;28;20628;-71
2023/09/29 09:03:58;;;;;;;14.52;8.90;;;;;;;;;;4964881;28;20065;-71
2023/09/29 09:06:25;;;;;;;10.02;8.50;;;;;;;;;;4961796;28;20478;-71
2023/09/29 09:08:52;;;;;;;9.98;8.35;;;;;;;;;;4963745;28;20543;-71
2023/09/29 09:11:18;;;;;;;9.88;8.98;;;;;;;;;;4962084;28;20030;-70
2023/09/29 09:13:58;;;;;;;9.30;8.40;;;;;;;;;;4962585;28;20046;-71
2023/09/29 09:16:28;;;;;;;9.70;8.75;;;;;;;;;;4963310;28;20490;-71
2023/09/29 09:18:55;;;;;;;9.02;8.27;;;;;;;;;;4962025;28;20046;-71
2023/09/29 09:21:36;;;;;;;10.27;9.15;;;;;;;;;;4943500;28;20051;-71
2023/09/29 09:24:24;;;;;;;11.07;9.25;;;;;;;;;;4964827;28;20078;-71
2023/09/29 09:26:51;;;;;;;10.02;8.80;;;;;;;;;;4969598;28;20045;-71
2023/09/29 09:29:18;;;;;;;11.95;8.88;;;;;;;;;;4968707;28;20556;-71
2023/09/29 09:31:52;;;;;;;9.60;8.60;;;;;;;;;;4949206;28;20055;-71
2023/09/29 09:34:18;;;;;;;10.60;9.00;;;;;;;;;;4963899;28;20038;-72
2023/09/29 09:36:52;;;;;;;9.55;8.65;;;;;;;;;;4966797;28;20038;-72
2023/09/29 09:39:25;;;;;;;8.88;8.05;;;;;;;;;;4966014;28;20085;-72
2023/09/29 09:41:56;;;;;;;9.88;8.45;;;;;;;;;;4963868;28;20409;-72
2023/09/29 09:44:22;;;;;;;8.98;8.07;;;;;;;;;;4967157;28;20053;-70
2023/09/29 09:47:00;;;;;;;8.77;7.95;;;;;;;;;;4966011;28;20504;-71
2023/09/29 09:49:36;;;;;;;13.07;8.48;;;;;;;;;;4963821;28;20518;-71
2023/09/29 09:52:08;;;;;;;8.60;7.80;;;;;;;;;;4964309;28;20093;-71
2023/09/29 09:54:49;;;;;;;10.40;8.45;;;;;;;;;;4964680;28;20115;-71
2023/09/29 09:57:33;;;;;;;8.93;8.00;;;;;;;;;;4957929;28;20038;-71
2023/09/29 10:00:07;;;;;;;9.10;7.55;;;;;;;;;;4978455;28;20455;-71
2023/09/29 10:02:38;;;;;;;11.23;7.88;;;;;;;;;;4964358;28;20038;-71
2023/09/29 10:05:12;;;;;;;8.60;7.68;;;;;;;;;;4963621;28;20242;-71
2023/09/29 10:08:05;;;;;;;8.63;7.90;;;;;;;;;;4964143;28;20027;-71
2023/09/29 10:10:37;;;;;;;8.43;7.72;;;;;;;;;;4980707;28;20049;-71
2023/09/29 10:13:05;;;;;;;8.57;7.78;;;;;;;;;;4965211;28;20082;-71
2023/09/29 10:15:32;;;;;;;10.90;7.60;;;;;;;;;;4962011;28;20088;-71
2023/09/29 10:18:00;;;;;;;8.47;7.83;;;;;;;;;;4965220;28;20509;-71
2023/09/29 10:20:29;;;;;;;8.85;8.15;;;;;;;;;;4963723;28;20465;-71
2023/09/29 10:23:08;;;;;;;7.82;7.22;;;;;;;;;;4965489;28;20062;-71
2023/09/29 10:25:40;;;;;;;8.07;7.47;;;;;;;;;;4964108;28;20042;-71
2023/09/29 10:28:07;;;;;;;8.38;7.47;;;;;;;;;;4966434;28;20047;-71
2023/09/29 10:30:34;;;;;;;9.73;7.25;;;;;;;;;;4965235;28;20037;-71
2023/09/29 10:33:05;;;;;;;7.82;7.22;;;;;;;;;;4966455;28;20104;-71
2023/09/29 10:35:33;;;;;;;8.55;7.68;;;;;;;;;;4966191;28;20031;-72
2023/09/29 10:38:07;;;;;;;8.00;7.30;;;;;;;;;;4965711;28;20045;-71
2023/09/29 10:40:33;;;;;;;9.00;7.78;;;;;;;;;;4965208;28;20045;-71
2023/09/29 10:43:02;;;;;;;8.10;7.30;;;;;;;;;;4965936;28;20046;-72
2023/09/29 10:45:37;;;;;;;7.90;7.10;;;;;;;;;;4960584;28;20035;-72
2023/09/29 10:48:08;;;;;;;7.90;7.30;;;;;;;;;;4962495;28;20042;-72
2023/09/29 10:50:41;;;;;;;7.78;7.18;;;;;;;;;;4962872;28;20487;-71
2023/09/29 10:53:07;;;;;;;7.70;7.00;;;;;;;;;;4964750;28;20039;-72
2023/09/29 10:55:44;;;;;;;8.50;7.13;;;;;;;;;;4963080;28;20054;-71
2023/09/29 10:58:11;;;;;;;7.93;7.22;;;;;;;;;;4962595;28;20232;-74
2023/09/29 11:00:50;;;;;;;7.70;7.18;;;;;;;;;;4964371;28;20512;-75
2023/09/29 11:03:18;;;;;;;7.68;6.97;;;;;;;;;;4962336;28;20047;-74
2023/09/29 11:05:49;;;;;;;7.80;7.23;;;;;;;;;;4974239;22;21626;-69
2023/09/29 11:08:21;;;;;;;10.52;6.80;;;;;;;;;;4960625;28;20503;-70
2023/09/29 11:10:58;;;;;;;7.78;7.07;;;;;;;;;;4961430;28;20034;-69
2023/09/29 11:13:24;;;;;;;7.97;7.00;;;;;;;;;;4961633;28;20043;-69
2023/09/29 11:15:51;;;;;;;10.98;7.18;;;;;;;;;;4958107;28;20558;-69
2023/09/29 11:18:26;;;;;;;7.88;7.00;;;;;;;;;;4952695;28;20338;-69
2023/09/29 11:20:54;;;;;;;7.47;6.97;;;;;;;;;;4957629;28;20042;-69
2023/09/29 11:23:21;;;;;;;8.75;7.10;;;;;;;;;;4968914;28;20115;-69
2023/09/29 11:25:49;;;;;;;9.77;7.25;;;;;;;;;;4958289;28;20042;-69
2023/09/29 11:28:15;;;;;;;8.35;7.20;;;;;;;;;;4957670;28;20041;-69
2023/09/29 11:30:42;;;;;;;9.20;7.53;;;;;;;;;;4957234;28;20031;-69
2023/09/29 11:33:12;;;;;;;8.07;7.38;;;;;;;;;;4953694;28;20498;-69
2023/09/29 11:35:44;;;;;;;8.57;7.88;;;;;;;;;;4957084;28;20038;-69
2023/09/29 11:38:19;;;;;;;9.60;7.45;;;;;;;;;;4956004;28;20039;-69
2023/09/29 11:40:50;;;;;;;8.55;7.60;;;;;;;;;;4960829;28;20719;-69
2023/09/29 11:43:16;;;;;;;8.95;7.88;;;;;;;;;;4957747;28;20047;-69
2023/09/29 11:45:42;;;;;;;8.75;7.90;;;;;;;;;;4956842;28;20053;-69
2023/09/29 11:48:08;;;;;;;8.50;7.70;;;;;;;;;;4958482;28;20042;-69
2023/09/29 11:50:34;;;;;;;10.02;8.27;;;;;;;;;;4958061;28;20031;-70
2023/09/29 11:53:03;;;;;;;8.30;7.60;;;;;;;;;;4958393;28;20038;-69
2023/09/29 11:55:30;;;;;;;9.13;8.23;;;;;;;;;;4955721;28;20037;-69
2023/09/29 11:57:55;;;;;;;9.02;8.32;;;;;;;;;;4955598;28;20065;-69
2023/09/29 12:00:21;;;;;;;9.23;8.43;;;;;;;;;;4957020;28;20398;-68
2023/09/29 12:02:47;;;;;;;8.52;7.80;;;;;;;;;;4958848;28;20077;-69
2023/09/29 12:05:12;;;;;;;11.15;7.82;;;;;;;;;;4958863;28;20039;-69
2023/09/29 12:07:38;;;;;;;8.82;8.02;;;;;;;;;;4957067;28;20433;-68
2023/09/29 12:10:04;;;;;;;9.05;8.20;;;;;;;;;;4951670;28;20038;-69
2023/09/29 12:12:32;;;;;;;9.18;8.27;;;;;;;;;;4959208;28;20039;-68
2023/09/29 12:14:58;;;;;;;9.57;8.52;;;;;;;;;;4957644;28;20674;-68
2023/09/29 12:17:24;;;;;;;9.38;8.43;;;;;;;;;;4957742;28;20063;-69
2023/09/29 12:19:49;;;;;;;9.30;8.60;;;;;;;;;;4953028;28;20134;-68
2023/09/29 12:22:15;;;;;;;9.02;8.20;;;;;;;;;;4952441;28;20077;-69
2023/09/29 12:24:41;;;;;;;9.32;8.52;;;;;;;;;;4959247;28;20085;-69
2023/09/29 12:27:08;;;;;;;7.97;7.38;;;;;;;;;;4938096;28;20041;-68
2023/09/29 12:29:34;;;;;;;9.30;8.48;;;;;;;;;;4958862;28;20252;-68
2023/09/29 12:31:59;;;;;;;8.93;7.55;;;;;;;;;;4958523;28;20624;-68
2023/09/29 12:34:25;;;;;;;9.35;8.45;;;;;;;;;;4957968;28;20030;-68
2023/09/29 12:36:51;;;;;;;9.57;8.77;;;;;;;;;;4957458;28;20398;-69
2023/09/29 12:39:17;;;;;;;8.82;8.05;;;;;;;;;;4959643;28;20051;-68
2023/09/29 12:41:47;;;;;;;9.38;8.30;;;;;;;;;;4960073;28;20497;-68
2023/09/29 12:44:13;;;;;;;9.20;8.50;;;;;;;;;;4950258;28;20028;-69
2023/09/29 12:46:39;;;;;;;10.50;8.93;;;;;;;;;;4961736;28;20050;-68
2023/09/29 12:49:04;;;;;;;9.68;8.80;;;;;;;;;;4955859;28;20639;-69
2023/09/29 12:51:30;;;;;;;9.63;8.73;;;;;;;;;;4955429;28;20061;-69
2023/09/29 12:53:56;;;;;;;9.40;8.70;;;;;;;;;;4955680;28;20659;-69
2023/09/29 12:56:23;;;;;;;9.35;8.55;;;;;;;;;;4957363;28;20066;-69
2023/09/29 12:58:48;;;;;;;9.32;8.57;;;;;;;;;;4954348;28;20047;-69
2023/09/29 13:01:14;;;;;;;9.70;8.90;;;;;;;;;;4963814;28;20050;-68
2023/09/29 13:03:40;;;;;;;11.77;8.55;;;;;;;;;;4958591;28;20034;-68
2023/09/29 13:06:07;;;;;;;8.73;7.93;;;;;;;;;;4963505;28;20457;-69
2023/09/29 13:08:33;;;;;;;9.00;8.30;;;;;;;;;;4966661;28;20043;-69
2023/09/29 13:10:59;;;;;;;9.20;8.35;;;;;;;;;;4961985;28;20039;-69
2023/09/29 13:13:25;;;;;;;9.63;8.73;;;;;;;;;;4962679;28;20398;-69
2023/09/29 13:15:51;;;;;;;9.75;8.85;;;;;;;;;;4968024;28;20046;-68
2023/09/29 13:18:18;;;;;;;10.57;9.05;;;;;;;;;;4965901;28;20038;-68
2023/09/29 13:20:45;;;;;;;8.93;8.25;;;;;;;;;;4967087;28;20034;-69
2023/09/29 13:23:12;;;;;;;8.60;7.82;;;;;;;;;;4968598;28;20488;-68
2023/09/29 13:25:38;;;;;;;9.20;8.50;;;;;;;;;;4961592;28;20557;-69
2023/09/29 13:28:04;;;;;;;9.82;8.73;;;;;;;;;;4974542;28;20045;-69
2023/09/29 13:30:30;;;;;;;9.65;8.70;;;;;;;;;;4965431;28;20106;-68
2023/09/29 13:32:56;;;;;;;9.40;8.55;;;;;;;;;;4965501;28;20564;-68
2023/09/29 13:35:22;;;;;;;11.63;9.13;;;;;;;;;;4971451;28;20042;-68
2023/09/29 13:37:48;;;;;;;9.73;8.73;;;;;;;;;;4967269;28;20042;-69
2023/09/29 13:40:14;;;;;;;9.43;8.48;;;;;;;;;;4962929;28;20047;-68
2023/09/29 13:42:40;;;;;;;8.77;7.97;;;;;;;;;;4967651;28;20043;-68
2023/09/29 13:45:06;;;;;;;8.80;8.10;;;;;;;;;;4964360;28;20287;-68
2023/09/29 13:47:33;;;;;;;9.93;8.93;;;;;;;;;;4965621;28;20113;-69
2023/09/29 13:50:01;;;;;;;10.07;9.07;;;;;;;;;;4966367;28;20074;-68
2023/09/29 13:52:28;;;;;;;10.02;9.00;;;;;;;;;;4967498;28;20049;-68
2023/09/29 13:54:54;;;;;;;9.77;8.88;;;;;;;;;;4964515;28;20066;-69
2023/09/29 13:57:21;;;;;;;9.60;8.90;;;;;;;;;;4964023;28;20117;-69
2023/09/29 13:59:47;;;;;;;10.73;8.57;;;;;;;;;;4966280;28;20462;-69
2023/09/29 14:02:13;;;;;;;9.13;8.30;;;;;;;;;;4964474;28;20508;-68
2023/09/29 14:04:40;;;;;;;8.68;7.97;;;;;;;;;;4962434;28;20051;-69
2023/09/29 14:07:06;;;;;;;9.32;8.52;;;;;;;;;;4960289;28;20069;-69
2023/09/29 14:09:31;;;;;;;8.90;8.20;;;;;;;;;;4960179;28;20498;-68
2023/09/29 14:11:58;;;;;;;9.00;8.20;;;;;;;;;;4943281;28;20039;-69
2023/09/29 14:14:24;;;;;;;9.48;8.73;;;;;;;;;;4964660;28;20061;-69
2023/09/29 14:16:49;;;;;;;8.95;8.20;;;;;;;;;;4978320;28;20035;-69
2023/09/29 14:19:15;;;;;;;11.25;9.07;;;;;;;;;;4962993;28;20049;-69
2023/09/29 14:21:41;;;;;;;9.98;8.98;;;;;;;;;;4961451;28;20516;-69
2023/09/29 14:24:07;;;;;;;9.38;8.57;;;;;;;;;;4965396;28;20027;-68
2023/09/29 14:26:33;;;;;;;9.30;8.50;;;;;;;;;;4967534;28;20110;-70
2023/09/29 14:28:58;;;;;;;11.00;8.55;;;;;;;;;;4968841;28;20098;-69
2023/09/29 14:31:24;;;;;;;9.32;8.48;;;;;;;;;;4962742;28;20038;-68
2023/09/29 14:33:50;;;;;;;9.45;8.60;;;;;;;;;;4957795;28;20042;-68
2023/09/29 14:36:16;;;;;;;10.13;9.10;;;;;;;;;;4962659;28;20050;-68